aviador You're here:

LEMD Decoded Metar

MADRID in SPAIN
Report Time2018-02-20 01:30:00
UTC Time2018-02-20 01:59:06
Flight Rules vfr VFR
Wind360° at 10 kt
W.Decomp.*RWY 36: 10.0 kt HW 0.3 kt RCW
RWY 32: 7.4 kt HW 6.7 kt RCW
Visibility9999 m
Phenomena:N/A
Clouds:N/A
Expected CloudBase > 2,400 ft AGL from Temp-Dew spread
CeilingNone
Temp09°C (ISA -2)
Dew Point03°C (66% RH)
AAT3.9°C
QNH1018 hPa
Density Alt1,588 ft
Elevation1,909 ft
Report Wrong Elevation
Raw Report
LEMD 200130Z 36010KT CAVOK 09/03 Q1018 NOSIG=

Extra information for LEMD:More info

Metar Taf Metar & Taf Last 4 Metars F.Rules Stats Wind Profile Meteogram Temp Stats Airport Information Weather charts Add Link Nearby VenuesMetar ALERT Operation Metar Decoded Social comments